createdAt,value
2023-05-19T00:00:02.502Z,10.32
2023-05-19T00:02:39.906Z,9.15
2023-05-19T00:05:08.203Z,8.50
2023-05-19T00:07:39.244Z,7.40
2023-05-19T00:10:07.687Z,8.88
2023-05-19T00:12:36.283Z,7.93
2023-05-19T00:15:04.267Z,15.05
2023-05-19T00:17:34.796Z,9.93
2023-05-19T00:20:02.327Z,9.75
2023-05-19T00:22:31.351Z,7.18
2023-05-19T00:24:58.743Z,8.05
2023-05-19T00:27:26.519Z,8.65
2023-05-19T00:29:54.014Z,5.80
2023-05-19T00:32:21.382Z,7.20
2023-05-19T00:34:49.767Z,9.73
2023-05-19T00:37:18.089Z,11.07
2023-05-19T00:39:45.728Z,7.38
2023-05-19T00:42:13.115Z,8.38
2023-05-19T00:44:42.021Z,10.65
2023-05-19T00:47:09.492Z,11.88
2023-05-19T00:49:36.975Z,9.10
2023-05-19T00:52:06.616Z,12.95
2023-05-19T00:54:35.086Z,5.15
2023-05-19T00:57:03.077Z,8.90
2023-05-19T00:59:30.631Z,7.53
2023-05-19T01:01:58.059Z,9.35
2023-05-19T01:04:26.838Z,13.38
2023-05-19T01:06:57.152Z,11.50
2023-05-19T01:09:24.677Z,7.20
2023-05-19T01:11:52.066Z,15.95
2023-05-19T01:14:20.746Z,11.25
2023-05-19T01:16:50.848Z,8.15
2023-05-19T01:19:18.259Z,7.28
2023-05-19T01:22:13.505Z,12.52
2023-05-19T01:25:00.273Z,11.55
2023-05-19T01:27:36.606Z,11.48
2023-05-19T01:30:24.051Z,10.30
2023-05-19T01:32:54.681Z,9.52
2023-05-19T01:35:26.447Z,8.13
2023-05-19T01:37:56.718Z,11.82
2023-05-19T01:40:25.888Z,9.77
2023-05-19T01:42:57.340Z,10.65
2023-05-19T01:45:28.932Z,9.13
2023-05-19T01:47:59.462Z,11.10
2023-05-19T01:50:27.462Z,9.80
2023-05-19T01:52:55.848Z,10.32
2023-05-19T01:55:24.097Z,7.88
2023-05-19T01:57:51.493Z,7.10
2023-05-19T02:00:37.191Z,10.73
2023-05-19T02:04:12.897Z,10.50
2023-05-19T02:06:58.741Z,8.32
2023-05-19T02:09:45.269Z,12.98
2023-05-19T02:12:24.482Z,13.98
2023-05-19T02:15:06.612Z,7.78
2023-05-19T02:17:40.429Z,7.13
2023-05-19T02:20:12.244Z,11.70
2023-05-19T02:22:40.187Z,13.82
2023-05-19T02:25:09.310Z,5.93
2023-05-19T02:27:39.028Z,8.80
2023-05-19T02:30:09.633Z,9.90
2023-05-19T02:32:37.950Z,10.43
2023-05-19T02:35:05.880Z,7.88
2023-05-19T02:40:00.950Z,13.30
2023-05-19T02:42:28.774Z,6.63
2023-05-19T02:44:56.262Z,12.07
2023-05-19T02:47:23.833Z,8.10
2023-05-19T02:49:51.354Z,8.63
2023-05-19T02:52:19.533Z,10.70
2023-05-19T02:54:47.226Z,9.70
2023-05-19T02:57:17.083Z,9.90
2023-05-19T02:59:44.978Z,12.40
2023-05-19T03:04:43.428Z,9.35
2023-05-19T03:07:13.673Z,8.15
2023-05-19T03:09:53.233Z,12.77
2023-05-19T03:12:21.125Z,12.75
2023-05-19T03:19:43.513Z,15.15
2023-05-19T03:22:16.062Z,10.20
2023-05-19T03:24:43.556Z,14.98
2023-05-19T03:27:12.786Z,13.38
2023-05-19T03:29:40.176Z,10.50
2023-05-19T03:32:07.852Z,12.93
2023-05-19T03:34:37.056Z,13.80
2023-05-19T03:37:05.133Z,16.23
2023-05-19T03:39:33.881Z,20.27
2023-05-19T03:42:01.381Z,9.98
2023-05-19T03:44:28.709Z,14.32
2023-05-19T03:46:56.265Z,16.15
2023-05-19T03:49:56.434Z,9.38
2023-05-19T03:52:51.490Z,13.65
2023-05-19T03:55:41.090Z,12.50
2023-05-19T03:58:08.563Z,11.20
2023-05-19T04:00:37.358Z,11.20
2023-05-19T04:03:04.914Z,10.40
2023-05-19T04:05:32.494Z,11.75
2023-05-19T04:08:00.933Z,8.20
2023-05-19T04:10:36.122Z,10.55
2023-05-19T04:13:03.905Z,9.20
2023-05-19T04:15:31.490Z,15.15
2023-05-19T04:17:58.949Z,13.77
2023-05-19T04:20:26.403Z,13.77
2023-05-19T04:22:53.870Z,11.95
2023-05-19T04:25:21.188Z,9.40
2023-05-19T04:27:49.424Z,12.63
2023-05-19T04:30:22.718Z,13.93
2023-05-19T04:35:22.202Z,12.10
2023-05-19T04:37:54.531Z,12.65
2023-05-19T04:40:31.627Z,6.65
2023-05-19T04:42:59.382Z,6.90
2023-05-19T04:45:26.879Z,10.15
2023-05-19T04:47:58.390Z,11.70
2023-05-19T04:50:26.573Z,10.90
2023-05-19T04:52:54.555Z,14.05
2023-05-19T04:55:23.462Z,15.50
2023-05-19T04:57:51.282Z,14.10
2023-05-19T05:00:21.992Z,10.57
2023-05-19T05:02:58.560Z,12.13
2023-05-19T05:05:29.453Z,14.07
2023-05-19T05:07:59.053Z,16.63
2023-05-19T05:10:33.445Z,12.88
2023-05-19T05:13:02.831Z,13.48
2023-05-19T05:15:31.083Z,9.93
2023-05-19T05:18:02.108Z,15.30
2023-05-19T05:20:31.936Z,18.00
2023-05-19T05:23:00.031Z,14.88
2023-05-19T05:25:28.467Z,12.45
2023-05-19T05:28:00.407Z,12.23
2023-05-19T05:30:28.664Z,17.90
2023-05-19T05:32:58.243Z,15.15
2023-05-19T05:35:33.518Z,26.45
2023-05-19T05:38:02.071Z,22.95
2023-05-19T05:40:30.575Z,24.90
2023-05-19T05:43:01.531Z,15.18
2023-05-19T05:45:34.665Z,20.08
2023-05-19T05:48:03.028Z,21.30
2023-05-19T05:50:32.985Z,20.65
2023-05-19T05:53:02.111Z,16.58
2023-05-19T05:55:32.537Z,20.52
2023-05-19T05:58:16.512Z,16.15
2023-05-19T06:00:50.908Z,18.40
2023-05-19T06:03:19.068Z,16.40
2023-05-19T06:05:47.726Z,14.38
2023-05-19T06:08:15.595Z,17.33
2023-05-19T06:10:47.189Z,14.63
2023-05-19T06:13:21.765Z,14.48
2023-05-19T06:15:49.443Z,13.07
2023-05-19T06:18:24.836Z,12.23
2023-05-19T06:20:53.762Z,12.15
2023-05-19T06:23:24.338Z,11.65
2023-05-19T06:25:54.309Z,14.82
2023-05-19T06:28:43.461Z,16.13
2023-05-19T06:31:11.953Z,15.32
2023-05-19T06:33:57.398Z,10.10
2023-05-19T06:36:26.166Z,10.48
2023-05-19T06:39:00.104Z,16.30
2023-05-19T06:41:30.240Z,10.70
2023-05-19T06:43:57.875Z,12.27
2023-05-19T06:48:53.759Z,14.68
2023-05-19T06:51:24.859Z,14.30
2023-05-19T06:53:57.439Z,9.05
2023-05-19T06:56:25.786Z,12.13
2023-05-19T06:58:54.986Z,12.13
2023-05-19T07:01:32.564Z,5.60
2023-05-19T07:04:00.904Z,7.53
2023-05-19T07:06:30.784Z,10.23
2023-05-19T07:08:58.433Z,9.10
2023-05-19T07:11:27.651Z,10.10
2023-05-19T07:13:59.373Z,8.32
2023-05-19T07:16:31.263Z,10.27
2023-05-19T07:18:59.230Z,8.60
2023-05-19T07:21:27.386Z,5.93
2023-05-19T07:23:55.644Z,8.45
2023-05-19T07:29:51.989Z,6.97
2023-05-19T07:32:42.228Z,7.57
2023-05-19T07:35:11.606Z,9.50
2023-05-19T07:37:40.992Z,8.52
2023-05-19T07:40:10.444Z,7.88
2023-05-19T07:42:51.664Z,7.07
2023-05-19T07:45:26.712Z,7.20
2023-05-19T07:47:55.291Z,8.98
2023-05-19T07:50:30.286Z,9.10
2023-05-19T07:52:59.288Z,6.72
2023-05-19T07:55:29.407Z,7.07
2023-05-19T07:57:57.610Z,8.35
2023-05-19T08:00:25.748Z,7.82
2023-05-19T08:02:53.812Z,8.40
2023-05-19T08:05:21.555Z,9.70
2023-05-19T08:07:50.279Z,8.80
2023-05-19T08:10:18.731Z,11.82
2023-05-19T08:12:47.993Z,4.57
2023-05-19T08:15:17.507Z,5.90
2023-05-19T08:17:45.212Z,4.65
2023-05-19T08:20:14.386Z,5.22
2023-05-19T08:22:45.280Z,5.93
2023-05-19T08:25:15.442Z,6.28
2023-05-19T08:27:51.711Z,4.85
2023-05-19T08:30:28.112Z,8.35
2023-05-19T08:32:57.551Z,8.55
2023-05-19T08:35:27.732Z,14.25
2023-05-19T08:37:56.744Z,7.82
2023-05-19T08:40:29.817Z,12.25
2023-05-19T08:42:58.978Z,13.02
2023-05-19T08:48:22.979Z,9.25
2023-05-19T08:51:33.967Z,11.18
2023-05-19T08:54:18.435Z,11.35
2023-05-19T08:56:46.094Z,8.05
2023-05-19T08:59:18.190Z,9.00
2023-05-19T09:01:49.209Z,12.65
2023-05-19T09:04:17.616Z,10.95
2023-05-19T09:06:48.721Z,6.90
2023-05-19T09:09:18.102Z,14.80
2023-05-19T09:11:47.995Z,8.82
2023-05-19T09:14:18.097Z,6.03
2023-05-19T09:16:51.010Z,6.50
2023-05-19T09:19:23.680Z,9.57
2023-05-19T09:22:03.756Z,7.95
2023-05-19T09:24:35.075Z,6.78
2023-05-19T09:27:07.818Z,11.88
2023-05-19T09:29:36.351Z,8.32
2023-05-19T09:32:06.535Z,5.57
2023-05-19T09:34:42.454Z,8.27
2023-05-19T09:37:13.476Z,5.18
2023-05-19T09:39:41.101Z,7.80
2023-05-19T09:42:09.122Z,5.22
2023-05-19T09:44:37.156Z,6.93
2023-05-19T09:47:04.859Z,9.50
2023-05-19T09:49:33.210Z,9.38
2023-05-19T09:52:06.656Z,10.75
2023-05-19T09:54:34.622Z,9.80
2023-05-19T09:57:04.078Z,8.02
2023-05-19T09:59:33.755Z,9.13
2023-05-19T10:02:03.055Z,7.20
2023-05-19T10:04:32.187Z,9.70
2023-05-19T10:07:00.209Z,9.85
2023-05-19T10:09:32.299Z,8.18
2023-05-19T10:12:01.514Z,10.48
2023-05-19T10:14:30.876Z,5.63
2023-05-19T10:16:59.873Z,7.72
2023-05-19T10:19:29.598Z,7.20
2023-05-19T10:21:58.249Z,8.63
2023-05-19T10:24:28.423Z,9.18
2023-05-19T10:27:03.896Z,10.20
2023-05-19T10:29:35.196Z,9.23
2023-05-19T10:32:12.071Z,13.45
2023-05-19T10:35:10.879Z,7.20
2023-05-19T10:37:46.977Z,8.88
2023-05-19T10:41:06.885Z,6.70
2023-05-19T10:44:12.015Z,6.60
2023-05-19T10:46:41.006Z,8.85
2023-05-19T10:49:09.084Z,8.05
2023-05-19T10:51:38.028Z,5.47
2023-05-19T10:54:14.397Z,6.05
2023-05-19T10:56:47.585Z,6.55
2023-05-19T10:59:32.547Z,7.65
2023-05-19T11:02:07.406Z,15.55
2023-05-19T11:04:51.265Z,10.65
2023-05-19T11:07:21.363Z,8.00
2023-05-19T11:09:52.059Z,9.98
2023-05-19T11:12:24.707Z,6.28
2023-05-19T11:14:54.722Z,8.90
2023-05-19T11:17:25.004Z,9.38
2023-05-19T11:19:57.422Z,9.20
2023-05-19T11:22:26.732Z,10.60
2023-05-19T11:24:58.291Z,6.97
2023-05-19T11:27:33.788Z,8.18
2023-05-19T11:30:14.683Z,13.43
2023-05-19T11:32:43.375Z,7.80
2023-05-19T11:35:11.607Z,7.07
2023-05-19T11:37:40.963Z,5.85
2023-05-19T11:40:09.644Z,7.13
2023-05-19T11:42:37.502Z,7.43
2023-05-19T11:45:06.399Z,7.80
2023-05-19T11:47:46.478Z,5.95
2023-05-19T11:50:23.983Z,9.27
2023-05-19T11:52:52.585Z,7.22
2023-05-19T11:55:22.576Z,6.75
2023-05-19T12:00:37.489Z,8.13
2023-05-19T12:03:05.984Z,7.53
2023-05-19T12:05:39.921Z,7.95
2023-05-19T12:08:09.850Z,12.15
2023-05-19T12:10:38.695Z,10.77
2023-05-19T12:13:09.509Z,5.85
2023-05-19T12:15:40.718Z,8.30
2023-05-19T12:18:08.860Z,5.05
2023-05-19T12:20:37.441Z,6.10
2023-05-19T12:23:05.790Z,6.65
2023-05-19T12:25:34.291Z,8.32
2023-05-19T12:28:03.668Z,8.00
2023-05-19T12:30:33.401Z,7.43
2023-05-19T12:33:02.211Z,6.18
2023-05-19T12:35:39.111Z,6.55
2023-05-19T12:38:07.488Z,8.43
2023-05-19T12:40:36.631Z,6.03
2023-05-19T12:43:05.870Z,5.75
2023-05-19T12:45:37.594Z,7.32
2023-05-19T12:48:17.095Z,8.45
2023-05-19T12:53:16.100Z,6.05
2023-05-19T12:55:45.927Z,9.10
2023-05-19T12:58:13.792Z,7.22
2023-05-19T13:00:47.693Z,7.60
2023-05-19T13:03:20.096Z,9.25
2023-05-19T13:05:49.749Z,6.35
2023-05-19T13:08:23.582Z,7.60
2023-05-19T13:10:51.594Z,8.27
2023-05-19T13:13:22.381Z,10.63
2023-05-19T13:15:50.548Z,8.75
2023-05-19T13:18:19.141Z,7.75
2023-05-19T13:20:51.773Z,8.00
2023-05-19T13:23:20.004Z,8.70
2023-05-19T13:25:48.349Z,7.53
2023-05-19T13:28:16.454Z,10.60
2023-05-19T13:30:45.620Z,13.18
2023-05-19T13:33:13.448Z,9.77
2023-05-19T13:35:41.089Z,6.55
2023-05-19T13:38:10.600Z,9.40
2023-05-19T13:40:40.000Z,10.00
2023-05-19T13:43:09.084Z,14.57
2023-05-19T13:45:36.878Z,13.00
2023-05-19T13:48:04.812Z,8.20
2023-05-19T13:50:32.734Z,10.23
2023-05-19T13:53:00.439Z,8.80
2023-05-19T13:55:28.060Z,10.35
2023-05-19T13:57:55.693Z,9.27
2023-05-19T14:00:23.398Z,7.40
2023-05-19T14:02:51.245Z,13.07
2023-05-19T14:05:19.256Z,11.70
2023-05-19T14:07:47.301Z,11.05
2023-05-19T14:10:14.879Z,13.95
2023-05-19T14:13:02.458Z,8.98
2023-05-19T14:15:30.009Z,10.48
2023-05-19T14:17:59.291Z,10.05
2023-05-19T14:20:29.180Z,9.25
2023-05-19T14:22:57.103Z,9.98
2023-05-19T14:25:24.618Z,11.50
2023-05-19T14:27:52.330Z,9.52
2023-05-19T14:30:19.940Z,9.63
2023-05-19T14:32:47.439Z,13.75
2023-05-19T14:35:14.948Z,12.55
2023-05-19T14:37:42.505Z,13.63
2023-05-19T14:40:10.429Z,13.63
2023-05-19T14:42:37.917Z,9.88
2023-05-19T14:45:05.862Z,10.55
2023-05-19T14:47:34.529Z,13.40
2023-05-19T14:50:02.134Z,11.43
2023-05-19T14:52:30.792Z,10.43
2023-05-19T14:54:58.313Z,14.82
2023-05-19T14:57:25.932Z,10.02
2023-05-19T14:59:53.405Z,11.75
2023-05-19T15:02:20.933Z,14.02
2023-05-19T15:04:48.477Z,16.08
2023-05-19T15:07:15.887Z,15.38
2023-05-19T15:09:43.290Z,10.07
2023-05-19T15:12:10.757Z,11.65
2023-05-19T15:14:38.162Z,17.52
2023-05-19T15:17:05.973Z,19.38
2023-05-19T15:19:33.540Z,12.45
2023-05-19T15:22:00.954Z,16.95
2023-05-19T15:26:56.042Z,18.98
2023-05-19T15:29:23.521Z,23.63
2023-05-19T15:31:53.865Z,24.92
2023-05-19T15:34:21.713Z,24.25
2023-05-19T15:36:49.119Z,24.15
2023-05-19T15:39:16.717Z,44.72
2023-05-19T15:41:44.232Z,42.53
2023-05-19T15:44:11.913Z,38.38
2023-05-19T15:46:39.309Z,40.97
2023-05-19T15:49:06.815Z,31.45
2023-05-19T15:51:34.824Z,27.65
2023-05-19T15:54:02.176Z,29.65
2023-05-19T15:58:56.913Z,31.83
2023-05-19T16:01:24.524Z,30.52
2023-05-19T16:03:52.205Z,24.77
2023-05-19T16:06:19.792Z,24.42
2023-05-19T16:08:47.340Z,23.38
2023-05-19T16:11:14.830Z,19.98
2023-05-19T16:16:09.715Z,30.63
2023-05-19T16:18:37.142Z,21.90
2023-05-19T16:23:32.049Z,23.23
2023-05-19T16:25:59.594Z,28.90
2023-05-19T16:28:28.198Z,21.38
2023-05-19T16:31:00.331Z,19.45
2023-05-19T16:33:28.510Z,11.50
2023-05-19T16:35:57.757Z,12.65
2023-05-19T16:38:25.189Z,13.77
2023-05-19T16:43:20.006Z,11.35
2023-05-19T16:45:47.465Z,11.38
2023-05-19T16:50:42.273Z,11.93
2023-05-19T16:55:36.839Z,9.05
2023-05-19T17:00:31.893Z,8.07
2023-05-19T17:02:59.635Z,9.10
2023-05-19T17:05:28.079Z,8.63
2023-05-19T17:07:55.769Z,7.15
2023-05-19T17:10:23.194Z,10.75
2023-05-19T17:12:50.652Z,12.52
2023-05-19T17:15:18.189Z,8.77
2023-05-19T17:20:13.651Z,12.65
2023-05-19T17:22:41.440Z,12.65
2023-05-19T17:25:09.534Z,16.83
2023-05-19T17:27:37.070Z,14.35
2023-05-19T17:30:07.738Z,14.95
2023-05-19T17:32:38.878Z,9.52
2023-05-19T17:35:07.254Z,18.27
2023-05-19T17:37:34.799Z,14.00
2023-05-19T17:42:31.873Z,12.20
2023-05-19T17:44:59.554Z,14.23
2023-05-19T17:47:27.137Z,10.13
2023-05-19T17:52:22.514Z,12.98
2023-05-19T17:54:50.838Z,17.10
2023-05-19T17:57:20.071Z,17.75
2023-05-19T17:59:47.955Z,9.80
2023-05-19T18:02:15.998Z,10.60
2023-05-19T18:04:44.033Z,13.52
2023-05-19T18:07:12.332Z,11.20
2023-05-19T18:09:45.629Z,13.35
2023-05-19T18:12:13.163Z,21.55
2023-05-19T18:17:07.857Z,12.02
2023-05-19T18:19:35.301Z,14.82
2023-05-19T18:22:02.696Z,12.15
2023-05-19T18:24:30.080Z,10.13
2023-05-19T18:26:57.645Z,12.50
2023-05-19T18:29:25.078Z,12.80
2023-05-19T18:31:52.541Z,14.38
2023-05-19T18:34:19.995Z,11.27
2023-05-19T18:36:47.389Z,13.02
2023-05-19T18:39:15.031Z,14.20
2023-05-19T18:41:43.060Z,14.68
2023-05-19T18:44:11.514Z,16.15
2023-05-19T18:46:38.983Z,17.27
2023-05-19T18:49:06.468Z,16.80
2023-05-19T18:51:36.204Z,17.67
2023-05-19T18:54:03.747Z,11.65
2023-05-19T18:59:15.107Z,11.98
2023-05-19T19:01:43.243Z,12.13
2023-05-19T19:04:10.734Z,9.45
2023-05-19T19:06:38.180Z,10.88
2023-05-19T19:09:05.590Z,12.13
2023-05-19T19:11:33.117Z,7.63
2023-05-19T19:14:01.721Z,12.00
2023-05-19T19:16:29.472Z,13.00
2023-05-19T19:21:24.493Z,12.27
2023-05-19T19:26:41.132Z,12.30
2023-05-19T19:29:08.555Z,13.98
2023-05-19T19:31:36.104Z,12.20
2023-05-19T19:34:09.293Z,12.45
2023-05-19T19:36:36.852Z,11.05
2023-05-19T19:39:04.350Z,13.00
2023-05-19T19:41:33.631Z,13.75
2023-05-19T19:44:01.438Z,8.38
2023-05-19T19:46:29.289Z,15.43
2023-05-19T19:51:28.520Z,11.25
2023-05-19T19:53:58.608Z,12.15
2023-05-19T19:56:27.770Z,12.77
2023-05-19T19:59:00.393Z,13.93
2023-05-19T20:01:28.408Z,13.15
2023-05-19T20:06:24.028Z,14.88
2023-05-19T20:11:18.903Z,16.88
2023-05-19T20:13:47.423Z,17.75
2023-05-19T20:16:14.966Z,14.65
2023-05-19T20:18:42.604Z,15.20
2023-05-19T20:21:10.317Z,13.50
2023-05-19T20:23:39.560Z,15.32
2023-05-19T20:26:12.407Z,13.77
2023-05-19T20:28:41.372Z,18.48
2023-05-19T20:31:09.109Z,18.85
2023-05-19T20:33:36.732Z,15.27
2023-05-19T20:38:32.781Z,14.63
2023-05-19T20:41:00.496Z,15.63
2023-05-19T20:43:28.014Z,15.40
2023-05-19T20:45:55.801Z,21.90
2023-05-19T20:50:51.574Z,18.65
2023-05-19T20:53:20.046Z,19.90
2023-05-19T20:55:48.249Z,16.58
2023-05-19T20:58:15.842Z,26.42
2023-05-19T21:00:43.455Z,19.98
2023-05-19T21:03:11.941Z,17.25
